createdAt,value
2023-03-31T00:01:33.865Z,99491.50
2023-03-31T00:04:24.183Z,99491.56
2023-03-31T00:07:14.981Z,99485.47
2023-03-31T00:10:17.293Z,99478.69
2023-03-31T00:13:06.643Z,99466.97
2023-03-31T00:15:57.997Z,99458.78
2023-03-31T00:18:47.647Z,99458.09
2023-03-31T00:21:36.995Z,99431.84
2023-03-31T00:24:25.643Z,99449.31
2023-03-31T00:27:15.723Z,99453.22
2023-03-31T00:30:04.498Z,99443.31
2023-03-31T00:32:53.332Z,99441.44
2023-03-31T00:35:41.867Z,99446.66
2023-03-31T00:38:30.986Z,99431.69
2023-03-31T00:41:19.477Z,99432.13
2023-03-31T00:44:14.438Z,99437.66
2023-03-31T00:47:04.897Z,99441.72
2023-03-31T00:49:56.921Z,99346.03
2023-03-31T00:52:46.939Z,99429.91
2023-03-31T00:55:38.631Z,99435.53
2023-03-31T00:58:28.517Z,99436.38
2023-03-31T01:01:24.517Z,99411.44
2023-03-31T01:04:16.771Z,99465.97
2023-03-31T01:07:09.688Z,99462.03
2023-03-31T01:10:00.279Z,99446.06
2023-03-31T01:12:51.406Z,99408.41
2023-03-31T01:15:40.283Z,99387.44
2023-03-31T01:18:30.622Z,99377.53
2023-03-31T01:21:59.832Z,99400.78
2023-03-31T01:25:34.603Z,99364.16
2023-03-31T01:28:29.927Z,99393.53
2023-03-31T01:31:43.693Z,99381.25
2023-03-31T01:35:06.036Z,99383.72
2023-03-31T01:38:20.002Z,99387.91
2023-03-31T01:41:18.646Z,99373.19
2023-03-31T01:44:16.419Z,99367.47
2023-03-31T01:47:10.011Z,99373.31
2023-03-31T01:50:02.485Z,99268.31
2023-03-31T01:52:54.287Z,99366.31
2023-03-31T01:55:45.054Z,99362.69
2023-03-31T01:58:38.741Z,99350.25
2023-03-31T02:01:31.477Z,99345.94
2023-03-31T02:04:22.371Z,99339.97
2023-03-31T02:07:15.132Z,99340.09
2023-03-31T02:10:06.857Z,99329.81
2023-03-31T02:12:56.536Z,99319.88
2023-03-31T02:15:49.394Z,99314.75
2023-03-31T02:18:41.653Z,99266.25
2023-03-31T02:21:30.726Z,99289.38
2023-03-31T02:24:20.805Z,99272.47
2023-03-31T02:27:14.728Z,99260.66
2023-03-31T02:30:04.083Z,99257.34
2023-03-31T02:32:53.913Z,99251.53
2023-03-31T02:35:42.407Z,99228.63
2023-03-31T02:38:33.867Z,99217.53
2023-03-31T02:41:22.429Z,99194.19
2023-03-31T02:44:11.152Z,99152.91
2023-03-31T02:46:59.639Z,99182.75
2023-03-31T02:49:52.117Z,99170.34
2023-03-31T02:52:47.817Z,99160.75
2023-03-31T02:55:48.754Z,99163.69
2023-03-31T02:58:54.043Z,99147.00
2023-03-31T03:01:51.219Z,99143.59
2023-03-31T03:04:55.797Z,99127.59
2023-03-31T03:07:48.694Z,99107.41
2023-03-31T03:10:43.696Z,99115.78
2023-03-31T03:13:36.649Z,99114.03
2023-03-31T03:16:27.254Z,99095.13
2023-03-31T03:19:20.517Z,99097.34
2023-03-31T03:22:10.653Z,99078.19
2023-03-31T03:24:59.150Z,99073.97
2023-03-31T03:27:47.812Z,99069.34
2023-03-31T03:30:36.375Z,99078.09
2023-03-31T03:33:25.138Z,99065.22
2023-03-31T03:36:14.248Z,99057.53
2023-03-31T03:39:04.961Z,98984.63
2023-03-31T03:41:53.443Z,99013.75
2023-03-31T03:44:41.871Z,98989.13
2023-03-31T03:47:30.691Z,98989.59
2023-03-31T03:50:19.194Z,98971.97
2023-03-31T03:53:07.659Z,98980.63
2023-03-31T03:55:59.134Z,98981.66
2023-03-31T03:58:47.594Z,98981.94
2023-03-31T04:01:36.018Z,99004.22
2023-03-31T04:04:24.799Z,99025.34
2023-03-31T04:07:13.295Z,99028.03
2023-03-31T04:10:01.820Z,98952.59
2023-03-31T04:12:51.712Z,99023.63
2023-03-31T04:15:40.295Z,99023.13
2023-03-31T04:18:28.832Z,99017.88
2023-03-31T04:21:22.905Z,99000.03
2023-03-31T04:27:10.596Z,98976.81
2023-03-31T04:30:00.468Z,98934.59
2023-03-31T04:32:50.688Z,98974.00
2023-03-31T04:35:49.372Z,98974.81
2023-03-31T04:38:37.869Z,98945.56
2023-03-31T04:41:27.516Z,98959.69
2023-03-31T04:44:16.036Z,98955.25
2023-03-31T04:47:06.917Z,98963.41
2023-03-31T04:49:55.435Z,98972.50
2023-03-31T04:52:44.064Z,98966.31
2023-03-31T04:55:32.746Z,98987.53
2023-03-31T04:58:21.367Z,98988.47
2023-03-31T05:01:10.165Z,98979.16
2023-03-31T05:04:00.393Z,99000.13
2023-03-31T05:06:48.928Z,98995.25
2023-03-31T05:09:37.452Z,99011.59
2023-03-31T05:12:26.139Z,99011.81
2023-03-31T05:15:14.587Z,98999.66
2023-03-31T05:18:03.166Z,98996.28
2023-03-31T05:20:53.011Z,98984.72
2023-03-31T05:23:41.584Z,98967.25
2023-03-31T05:26:30.095Z,98947.88
2023-03-31T05:29:18.681Z,98922.47
2023-03-31T05:32:07.234Z,98920.03
2023-03-31T05:34:57.818Z,98900.34
2023-03-31T05:37:47.683Z,98898.81
2023-03-31T05:40:36.150Z,98904.19
2023-03-31T05:43:24.880Z,98921.06
2023-03-31T05:46:13.967Z,98917.47
2023-03-31T05:49:02.764Z,98914.44
2023-03-31T05:51:51.774Z,98905.34
2023-03-31T05:54:42.792Z,98882.06
2023-03-31T05:57:31.544Z,98863.84
2023-03-31T06:00:20.885Z,98855.31
2023-03-31T06:03:09.457Z,98861.50
2023-03-31T06:05:58.716Z,98852.63
2023-03-31T06:08:47.886Z,98849.72
2023-03-31T06:11:37.762Z,98855.31
2023-03-31T06:14:26.583Z,98850.66
2023-03-31T06:17:15.089Z,98836.22
2023-03-31T06:20:13.102Z,98841.00
2023-03-31T06:23:12.899Z,98839.47
2023-03-31T06:26:03.207Z,98713.19
2023-03-31T06:28:53.017Z,98826.19
2023-03-31T06:31:41.478Z,98819.16
2023-03-31T06:34:30.157Z,98803.47
2023-03-31T06:37:18.641Z,98795.53
2023-03-31T06:40:08.764Z,98789.84
2023-03-31T06:42:57.195Z,98804.00
2023-03-31T06:45:47.126Z,98815.88
2023-03-31T06:48:35.696Z,98797.66
2023-03-31T06:51:24.257Z,98818.41
2023-03-31T06:54:12.761Z,98811.63
2023-03-31T06:57:01.350Z,98785.19
2023-03-31T06:59:49.884Z,98724.63
2023-03-31T07:02:39.819Z,98782.50
2023-03-31T07:05:28.901Z,98782.19
2023-03-31T07:08:18.539Z,98783.97
2023-03-31T07:11:07.357Z,98774.44
2023-03-31T07:13:56.003Z,98785.03
2023-03-31T07:16:44.623Z,98797.78
2023-03-31T07:19:37.886Z,98780.00
2023-03-31T07:22:26.648Z,98792.91
2023-03-31T07:25:16.563Z,98797.63
2023-03-31T07:28:05.602Z,98780.69
2023-03-31T07:30:54.088Z,98798.66
2023-03-31T07:33:42.678Z,98800.63
2023-03-31T07:36:32.997Z,98794.63
2023-03-31T07:39:21.675Z,98808.13
2023-03-31T07:42:10.438Z,98814.47
2023-03-31T07:44:58.942Z,98783.97
2023-03-31T07:47:47.919Z,98716.19
2023-03-31T07:50:36.713Z,98824.63
2023-03-31T07:53:26.650Z,98812.81
2023-03-31T07:56:16.891Z,98813.06
2023-03-31T07:59:05.486Z,98821.72
2023-03-31T08:01:54.318Z,98757.63
2023-03-31T08:04:43.594Z,98800.72
2023-03-31T08:07:34.632Z,98802.38
2023-03-31T08:10:26.693Z,98796.88
2023-03-31T08:13:15.391Z,98796.56
2023-03-31T08:16:05.100Z,98798.78
2023-03-31T08:18:53.792Z,98798.16
2023-03-31T08:21:42.479Z,98786.25
2023-03-31T08:24:31.117Z,98796.91
2023-03-31T08:27:21.006Z,98807.00
2023-03-31T08:30:11.954Z,98805.19
2023-03-31T08:33:00.514Z,98800.88
2023-03-31T08:35:49.171Z,98794.06
2023-03-31T08:38:39.056Z,98775.88
2023-03-31T08:41:50.344Z,98787.94
2023-03-31T08:44:44.763Z,98777.38
2023-03-31T08:47:35.087Z,98796.09
2023-03-31T08:50:26.696Z,98776.91
2023-03-31T08:53:21.589Z,98799.06
2023-03-31T08:56:16.453Z,98799.34
2023-03-31T08:59:04.934Z,98787.72
2023-03-31T09:01:59.869Z,98785.56
2023-03-31T09:05:08.731Z,98792.59
2023-03-31T09:08:02.400Z,98777.13
2023-03-31T09:10:54.956Z,98772.06
2023-03-31T09:13:58.393Z,98771.19
2023-03-31T09:16:50.543Z,98760.09
2023-03-31T09:19:43.748Z,98754.91
2023-03-31T09:22:33.903Z,98759.72
2023-03-31T09:25:25.257Z,98753.94
2023-03-31T09:28:17.215Z,98747.59
2023-03-31T09:31:12.532Z,98750.22
2023-03-31T09:34:02.483Z,98748.94
2023-03-31T09:36:52.376Z,98754.91
2023-03-31T09:39:41.437Z,98722.81
2023-03-31T09:42:29.976Z,98748.22
2023-03-31T09:45:20.473Z,98747.09
2023-03-31T09:48:13.699Z,98744.13
2023-03-31T09:51:04.580Z,98729.59
2023-03-31T09:53:56.641Z,98722.31
2023-03-31T09:56:52.829Z,98703.66
2023-03-31T09:59:41.696Z,98740.13
2023-03-31T10:02:41.472Z,98740.66
2023-03-31T10:05:32.159Z,98731.13
2023-03-31T10:08:25.091Z,98705.56
2023-03-31T10:11:15.604Z,98729.28
2023-03-31T10:13:49.234Z,98727.38
2023-03-31T10:16:23.446Z,98732.97
2023-03-31T10:18:51.808Z,98721.69
2023-03-31T10:21:23.195Z,98692.78
2023-03-31T10:23:52.490Z,98720.53
2023-03-31T10:26:24.217Z,98701.88
2023-03-31T10:28:55.146Z,98707.78
2023-03-31T10:31:27.520Z,98701.59
2023-03-31T10:33:56.177Z,98652.97
2023-03-31T10:36:27.573Z,98677.25
2023-03-31T10:38:56.655Z,98665.34
2023-03-31T10:41:28.446Z,98669.72
2023-03-31T10:43:57.622Z,98610.66
2023-03-31T10:46:42.058Z,98685.97
2023-03-31T10:49:17.188Z,98707.72
2023-03-31T10:51:53.718Z,98771.75
2023-03-31T10:54:21.903Z,98739.97
2023-03-31T10:56:54.381Z,98720.34
2023-03-31T10:59:42.174Z,98736.03
2023-03-31T11:02:34.803Z,98723.25
2023-03-31T11:05:10.634Z,98752.28
2023-03-31T11:07:48.159Z,98748.66
2023-03-31T11:10:25.695Z,98770.16
2023-03-31T11:12:59.441Z,98760.81
2023-03-31T11:15:31.767Z,98755.38
2023-03-31T11:18:13.000Z,98739.88
2023-03-31T11:20:46.441Z,98750.63
2023-03-31T11:23:21.107Z,98727.59
2023-03-31T11:25:54.314Z,98733.13
2023-03-31T11:28:37.897Z,98737.03
2023-03-31T11:31:15.535Z,98735.94
2023-03-31T11:34:03.264Z,98744.09
2023-03-31T11:36:52.044Z,98720.31
2023-03-31T11:39:30.007Z,98743.19
2023-03-31T11:42:13.571Z,98734.09
2023-03-31T11:44:52.871Z,98740.13
2023-03-31T11:47:23.997Z,98739.69
2023-03-31T11:49:54.457Z,98737.75
2023-03-31T11:52:27.151Z,98743.72
2023-03-31T11:55:16.921Z,98732.41
2023-03-31T11:58:08.867Z,98716.38
2023-03-31T12:01:03.329Z,98732.56
2023-03-31T12:03:57.782Z,98732.56
2023-03-31T12:06:47.600Z,98726.63
2023-03-31T12:09:39.379Z,98736.88
2023-03-31T12:12:30.942Z,98740.59
2023-03-31T12:15:22.822Z,98740.25
2023-03-31T12:18:16.155Z,98741.03
2023-03-31T12:21:06.016Z,98728.00
2023-03-31T12:23:54.545Z,98716.88
2023-03-31T12:26:51.371Z,98711.97
2023-03-31T12:29:41.917Z,98706.56
2023-03-31T12:32:32.576Z,98640.09
2023-03-31T12:35:24.870Z,98706.66
2023-03-31T12:38:23.133Z,98659.34
2023-03-31T12:41:17.675Z,98701.66
2023-03-31T12:44:15.542Z,98715.47
2023-03-31T12:47:23.264Z,98713.66
2023-03-31T12:50:29.991Z,98706.69
2023-03-31T12:53:25.038Z,98704.28
2023-03-31T12:56:13.523Z,98703.22
2023-03-31T12:59:20.094Z,98692.47
2023-03-31T13:02:27.656Z,98685.41
2023-03-31T13:05:51.570Z,98680.47
2023-03-31T13:08:54.654Z,98643.16
2023-03-31T13:11:47.888Z,98662.75
2023-03-31T13:14:38.821Z,98558.84
2023-03-31T13:17:32.306Z,98654.03
2023-03-31T13:20:37.591Z,98666.78
2023-03-31T13:23:28.696Z,98638.44
2023-03-31T13:26:39.887Z,98667.06
2023-03-31T13:29:40.875Z,98648.16
2023-03-31T13:32:29.713Z,98643.63
2023-03-31T13:35:20.442Z,98644.44
2023-03-31T13:38:14.125Z,98648.47
2023-03-31T13:41:11.651Z,98597.97
2023-03-31T13:44:14.864Z,98642.84
2023-03-31T13:47:35.959Z,98638.25
2023-03-31T13:50:51.928Z,98622.81
2023-03-31T13:53:30.041Z,98640.09
2023-03-31T13:56:16.692Z,98628.50
2023-03-31T13:59:30.414Z,98631.47
2023-03-31T14:02:40.614Z,98592.53
2023-03-31T14:05:35.424Z,98615.47
2023-03-31T14:08:31.120Z,98611.19
2023-03-31T14:11:24.276Z,98576.38
2023-03-31T14:14:14.458Z,98558.81
2023-03-31T14:17:03.809Z,98596.09
2023-03-31T14:20:08.814Z,98571.78
2023-03-31T14:23:20.103Z,98579.28
2023-03-31T14:26:16.140Z,98593.88
2023-03-31T14:29:12.616Z,98603.34
2023-03-31T14:32:07.481Z,98579.00
2023-03-31T14:35:23.721Z,98580.47
2023-03-31T14:38:15.915Z,98589.88
2023-03-31T14:41:04.853Z,98585.53
2023-03-31T14:43:54.096Z,98569.09
2023-03-31T14:46:44.364Z,98568.28
2023-03-31T14:49:36.840Z,98566.44
2023-03-31T14:52:26.019Z,98552.16
2023-03-31T14:55:16.298Z,98520.09
2023-03-31T14:58:05.116Z,98557.69
2023-03-31T15:00:54.327Z,98552.81
2023-03-31T15:03:24.345Z,98563.34
2023-03-31T15:06:12.049Z,98555.81
2023-03-31T15:08:59.861Z,98575.72
2023-03-31T15:11:48.558Z,98573.56
2023-03-31T15:14:41.107Z,98514.34
2023-03-31T15:17:32.472Z,98593.03
2023-03-31T15:20:35.150Z,98546.13
2023-03-31T15:23:06.698Z,98600.19
2023-03-31T15:25:39.238Z,98601.69
2023-03-31T15:28:08.627Z,98554.03
2023-03-31T15:30:37.648Z,98578.94
2023-03-31T15:35:58.322Z,98580.41
2023-03-31T15:38:28.789Z,98584.25
2023-03-31T15:40:57.864Z,98557.28
2023-03-31T15:43:30.323Z,98540.09
2023-03-31T15:45:59.039Z,98593.38
2023-03-31T15:48:33.372Z,98593.41
2023-03-31T15:51:06.698Z,98602.59
2023-03-31T15:53:38.204Z,98603.41
2023-03-31T15:56:07.508Z,98532.03
2023-03-31T15:58:55.463Z,98607.19
2023-03-31T16:01:25.081Z,98612.25
2023-03-31T16:03:54.215Z,98619.22
2023-03-31T16:06:46.500Z,98538.31
2023-03-31T16:09:41.151Z,98603.50
2023-03-31T16:12:31.579Z,98621.69
2023-03-31T16:15:24.033Z,98625.19
2023-03-31T16:18:16.768Z,98601.91
2023-03-31T16:21:08.531Z,98596.13
2023-03-31T16:24:00.373Z,98628.09
2023-03-31T16:26:49.371Z,98629.22
2023-03-31T16:29:38.758Z,98606.69
2023-03-31T16:32:27.226Z,98636.09
2023-03-31T16:35:15.864Z,98640.97
2023-03-31T16:37:44.252Z,98653.50
2023-03-31T16:40:14.376Z,98651.03
2023-03-31T16:42:42.603Z,98653.19
2023-03-31T16:45:14.672Z,98657.00
2023-03-31T16:47:45.594Z,98639.63
2023-03-31T16:50:15.653Z,98630.38
2023-03-31T16:52:44.217Z,98617.56
2023-03-31T16:55:13.809Z,98619.09
2023-03-31T16:57:42.018Z,98621.50
2023-03-31T17:00:11.840Z,98620.91
2023-03-31T17:02:40.084Z,98623.84
2023-03-31T17:05:13.225Z,98638.09
2023-03-31T17:07:41.762Z,98640.94
2023-03-31T17:10:10.521Z,98641.69
2023-03-31T17:12:40.091Z,98679.91
2023-03-31T17:15:09.694Z,98696.28
2023-03-31T17:17:38.020Z,98708.72
2023-03-31T17:20:08.006Z,98704.84
2023-03-31T17:22:36.804Z,98701.72
2023-03-31T17:25:05.843Z,98595.44
2023-03-31T17:27:34.079Z,98633.88
2023-03-31T17:32:38.349Z,98606.78
2023-03-31T17:35:07.698Z,98628.13
2023-03-31T17:37:35.961Z,98642.00
2023-03-31T17:40:05.999Z,98647.25
2023-03-31T17:42:34.149Z,98634.09
2023-03-31T17:45:03.751Z,98635.94
2023-03-31T17:47:33.061Z,98633.63
2023-03-31T17:50:01.354Z,98636.19
2023-03-31T17:52:29.620Z,98641.44
2023-03-31T17:54:58.595Z,98626.94
2023-03-31T17:57:27.385Z,98649.59
2023-03-31T17:59:56.901Z,98650.75
2023-03-31T18:02:27.263Z,98647.69
2023-03-31T18:04:55.597Z,98657.81
2023-03-31T18:07:23.905Z,98646.13
2023-03-31T18:09:52.232Z,98647.28
2023-03-31T18:12:20.569Z,98649.13
2023-03-31T18:14:48.832Z,98640.84
2023-03-31T18:17:17.197Z,98639.41
2023-03-31T18:19:47.401Z,98647.81
2023-03-31T18:22:15.804Z,98660.88
2023-03-31T18:24:44.440Z,98649.66
2023-03-31T18:27:12.698Z,98656.28
2023-03-31T18:29:41.170Z,98660.03
2023-03-31T18:32:12.379Z,98661.34
2023-03-31T18:34:40.775Z,98649.16
2023-03-31T18:37:10.625Z,98668.19
2023-03-31T18:39:39.097Z,98662.81
2023-03-31T18:42:07.611Z,98651.44
2023-03-31T18:44:36.183Z,98658.50
2023-03-31T18:47:04.564Z,98646.00
2023-03-31T18:49:32.890Z,98662.75
2023-03-31T18:52:02.470Z,98661.06
2023-03-31T18:54:32.250Z,98663.06
2023-03-31T18:57:01.484Z,98673.47
2023-03-31T18:59:29.854Z,98668.78
2023-03-31T19:01:58.140Z,98651.84
2023-03-31T19:04:26.942Z,98659.53
2023-03-31T19:06:56.441Z,98648.63
2023-03-31T19:09:27.274Z,98652.13
2023-03-31T19:11:57.502Z,98657.06
2023-03-31T19:14:25.724Z,98666.00
2023-03-31T19:16:55.681Z,98659.84
2023-03-31T19:19:24.368Z,98663.88
2023-03-31T19:21:52.792Z,98684.88
2023-03-31T19:24:21.195Z,98705.31
2023-03-31T19:26:49.408Z,98708.03
2023-03-31T19:29:19.087Z,98703.00
2023-03-31T19:31:48.463Z,98708.16
2023-03-31T19:34:17.820Z,98716.19
2023-03-31T19:36:46.199Z,98720.53
2023-03-31T19:39:14.893Z,98708.00
2023-03-31T19:41:43.145Z,98692.91
2023-03-31T19:44:11.342Z,98703.25
2023-03-31T19:46:41.225Z,98702.34
2023-03-31T19:49:09.529Z,98704.88
2023-03-31T19:51:37.807Z,98707.00
2023-03-31T19:54:06.176Z,98701.88
2023-03-31T19:56:34.963Z,98701.28
2023-03-31T19:59:03.435Z,98693.16
2023-03-31T20:01:32.506Z,98700.25
2023-03-31T20:04:02.243Z,98695.91
2023-03-31T20:06:31.816Z,98692.44
2023-03-31T20:09:18.308Z,98682.50
2023-03-31T20:11:47.444Z,98680.69
2023-03-31T20:14:16.278Z,98681.50
2023-03-31T20:16:44.754Z,98678.25
2023-03-31T20:19:16.306Z,98690.25
2023-03-31T20:21:45.619Z,98699.66
2023-03-31T20:24:16.525Z,98689.75
2023-03-31T20:26:45.526Z,98703.16
2023-03-31T20:29:13.825Z,98698.59
2023-03-31T20:31:42.479Z,98695.88
2023-03-31T20:34:15.183Z,98696.31
2023-03-31T20:36:44.856Z,98695.81
2023-03-31T20:39:14.300Z,98688.28
2023-03-31T20:41:43.313Z,98671.47
2023-03-31T20:44:17.394Z,98693.09
2023-03-31T20:46:46.598Z,98697.75
2023-03-31T20:49:16.285Z,98679.41
2023-03-31T20:51:45.645Z,98686.13
2023-03-31T20:54:13.912Z,98689.97
2023-03-31T20:56:42.827Z,98690.41
2023-03-31T20:59:29.521Z,98693.41
2023-03-31T21:02:18.019Z,98684.97
2023-03-31T21:05:08.629Z,98694.47
2023-03-31T21:07:57.662Z,98697.97
2023-03-31T21:10:47.401Z,98693.09
2023-03-31T21:13:36.033Z,98599.59
2023-03-31T21:16:25.363Z,98691.78
2023-03-31T21:19:14.010Z,98688.38
2023-03-31T21:22:03.823Z,98700.16
2023-03-31T21:24:52.278Z,98691.94
2023-03-31T21:27:40.910Z,98702.69
2023-03-31T21:30:29.427Z,98704.97
2023-03-31T21:33:18.554Z,98720.16
2023-03-31T21:36:08.592Z,98711.19
2023-03-31T21:38:58.468Z,98712.47
2023-03-31T21:41:47.012Z,98705.88
2023-03-31T21:44:35.493Z,98698.31
2023-03-31T21:47:24.011Z,98704.06
2023-03-31T21:50:12.886Z,98708.28
2023-03-31T21:53:01.656Z,98699.78
2023-03-31T21:55:53.554Z,98703.97
2023-03-31T21:58:42.202Z,98718.19
2023-03-31T22:01:31.361Z,98721.53
2023-03-31T22:04:19.931Z,98717.81
2023-03-31T22:07:08.494Z,98719.59
2023-03-31T22:09:57.110Z,98731.94
2023-03-31T22:12:47.210Z,98730.00
2023-03-31T22:15:35.674Z,98733.56
2023-03-31T22:18:24.459Z,98598.53
2023-03-31T22:21:17.518Z,98732.91
2023-03-31T22:24:06.563Z,98739.97
2023-03-31T22:26:55.037Z,98742.56
2023-03-31T22:29:45.029Z,98735.91
2023-03-31T22:32:33.541Z,98734.53
2023-03-31T22:35:22.152Z,98749.50
2023-03-31T22:38:13.292Z,98750.44
2023-03-31T22:41:01.749Z,98748.78
2023-03-31T22:43:51.452Z,98749.38
2023-03-31T22:46:41.528Z,98738.31
2023-03-31T22:49:30.030Z,98752.16
2023-03-31T22:52:18.548Z,98745.78
2023-03-31T22:55:08.021Z,98757.91
2023-03-31T22:57:56.881Z,98753.38
2023-03-31T23:00:45.431Z,98750.34
2023-03-31T23:03:35.330Z,98766.31
2023-03-31T23:06:24.206Z,98760.72
2023-03-31T23:09:12.695Z,98765.59
2023-03-31T23:12:01.197Z,98763.50
2023-03-31T23:14:49.668Z,98756.75
2023-03-31T23:17:38.132Z,98767.00
2023-03-31T23:20:29.143Z,98758.63
2023-03-31T23:23:18.122Z,98774.13
2023-03-31T23:26:07.503Z,98731.53
2023-03-31T23:28:57.376Z,98768.88
2023-03-31T23:31:45.962Z,98766.31
2023-03-31T23:34:34.561Z,98771.91
2023-03-31T23:37:24.651Z,98772.56
2023-03-31T23:40:14.493Z,98754.63
2023-03-31T23:43:02.999Z,98768.75
2023-03-31T23:45:51.514Z,98764.56
2023-03-31T23:48:40.261Z,98767.34
2023-03-31T23:51:28.787Z,98759.41
2023-03-31T23:54:18.608Z,98753.59
2023-03-31T23:57:07.359Z,98756.84
2023-03-31T23:59:56.148Z,98759.75
